Archival Weather

Joint Base Andrews

Camp Springs, Maryland (KADW)

Report from: Tuesday, February 27, 2024 3:55 AM EST
Current time: Wednesday, May 29, 2024 8:54 PM EDT

Current weather – Weather history – Daily summaries
Weather forecast

Temperature8.2°C (46.8°F)
Wind chill6.3°C (43.3°F)
Dew point3.8°C (38.8°F)
Winds 6 kts (3.1 m/s, 6.9 mph) South (170°)
Visibility10 mi. (16.1 km)
Clouds Sky clear
Altimeter29.93 in.Hg (1014 mB)
Relative humidity74 %
Density altitude-730 ft. (-223 m)
Sea-level pressure101.4 kPa (1014 mB, 29.95 in.Hg)
Remarks Fully automated report
System requires maintenance
Automated weather observing station with precipitation discriminator
Pressure falling
Flight conditions Visual Meteorological Conditions
Raw dataKADW 270855Z AUTO 17006KT 10SM CLR 08/04 A2993 RMK AO2 SLP142 T00820038 57008 $
An error has occurred. This application may no longer respond until reloaded. Reload 🗙